Accueil
METAR-TAF:

METAR-TAF

Aéroports :

Dole, France

Aéroport de Dole-Jura

latitude: 47-02-34N, longitude: 005-26-06E, altitude: 196 m

Observation

Le bulletin a été fait il y a 20 minutes, à 16:00 UTC
Vent 19 kt de nord-est
Température 1°C
Humidité 64%
Pression 1012 hPa
Visibilité 10 km ou plus
pas de nuages en-dessous de 1500 mètres et pas de cumulonimbus.

METAR: LFGJ 221600Z AUTO 05019KT CAVOK 01/M05 Q1012 BECMG 04012G22KT

Heure: 17:20 (16:20 UTC)

Prévision

Le bulletin a été fait il y a 2 heures et 20 minutes, à 14:00 UTC
Prévision valable du 22 à 15 UTC au 22 à 24 UTC
Vent 12 kt de nord-est avec des rafales jusqu'à 22 kt
Visibilité 10 km ou plus
Nuages épars à une hauteur de 5000 ft

TAF: LFGJ 221400Z 2215/2224 04012G22KT 9999 SCT050

Observations et prévisions météorologiques de plus de 4000 aéroports (messages METAR et TAF).

Les stations disponibles sont représentées par des disques jaunes et rouges sur la carte.

Passer la souris dessus pour voir le nom de la station.

Cliquer dessus pour voir les observations et prévisions météorologiques.

Pour changer de carte: cliquez sur les boutons verts avec une croix noire pour zoomer, sur le bouton vert avec un tiret pour effectuer un zoom arrière, ou sur les flèches vertes pour les cartes adjacentes.


METAR-TAF: